Time;durP1;ratioP1;P1;durP2;ratioP2;P2;SDS_P1;SDS_P2;PMS_P1;PMS_P2;Temp;Humidity;BMP_temperature;BMP_pressure;BME280_temperature;BME280_humidity;BME280_pressure;Samples;Min_cycle;Max_cycle;Signal;HPM_P1;HPM_P2
2021/07/09 00:02:16;;;;;;;12.20;7.30;;;;;;;24.03;79.38;100275.75;6249404;28;20064;-64
2021/07/09 00:05:17;;;;;;;12.50;7.75;;;;;;;24.04;79.46;100280.03;6250209;28;20061;-64
2021/07/09 00:08:17;;;;;;;14.93;7.73;;;;;;;24.03;79.65;100277.53;6249075;28;20072;-64
2021/07/09 00:11:19;;;;;;;12.50;7.40;;;;;;;23.96;79.92;100269.44;6250238;28;20041;-63
2021/07/09 00:14:28;;;;;;;8.07;7.28;;;;;;;23.84;80.62;100269.00;6250017;28;20049;-63
2021/07/09 00:17:29;;;;;;;17.58;7.80;;;;;;;23.98;79.86;100269.25;6250050;28;20091;-64
2021/07/09 00:20:30;;;;;;;9.73;7.55;;;;;;;23.96;80.31;100271.28;6248812;28;20374;-64
2021/07/09 00:23:31;;;;;;;11.97;7.70;;;;;;;23.93;80.07;100262.63;6232268;28;20471;-64
2021/07/09 00:26:32;;;;;;;11.53;7.97;;;;;;;23.86;80.60;100261.66;6248682;28;20049;-64
2021/07/09 00:29:33;;;;;;;11.20;7.78;;;;;;;23.94;80.33;100260.78;6249826;28;20052;-64
2021/07/09 00:32:33;;;;;;;10.33;7.60;;;;;;;24.01;80.35;100261.75;6249774;28;20558;-64
2021/07/09 00:35:34;;;;;;;10.90;7.80;;;;;;;23.96;80.43;100265.94;6248401;28;20128;-64
2021/07/09 00:38:35;;;;;;;14.07;8.03;;;;;;;23.84;80.89;100265.50;6249849;28;20041;-63
2021/07/09 00:41:36;;;;;;;9.90;7.33;;;;;;;23.94;80.63;100261.59;6249625;28;20128;-64
2021/07/09 00:44:37;;;;;;;10.30;7.82;;;;;;;23.95;80.79;100257.13;6248183;28;20076;-64
2021/07/09 00:47:38;;;;;;;12.40;7.93;;;;;;;23.89;80.64;100256.00;6249375;28;20473;-64
2021/07/09 00:50:39;;;;;;;9.27;7.47;;;;;;;23.84;80.89;100262.84;6248599;28;20049;-64
2021/07/09 00:53:39;;;;;;;13.60;7.82;;;;;;;23.71;81.64;100250.06;6249316;28;20073;-63
2021/07/09 00:56:40;;;;;;;11.67;8.10;;;;;;;23.69;81.92;100249.41;6248991;28;20351;-64
2021/07/09 00:59:42;;;;;;;10.93;7.30;;;;;;;23.68;81.92;100245.06;6247199;28;20049;-63
2021/07/09 01:02:45;;;;;;;11.13;8.25;;;;;;;23.52;82.67;100238.00;6249021;28;20488;-64
2021/07/09 01:05:46;;;;;;;10.45;8.23;;;;;;;23.45;82.92;100245.00;6248862;28;20104;-63
2021/07/09 01:08:47;;;;;;;9.18;8.15;;;;;;;23.53;82.85;100244.97;6247736;28;20045;-63
2021/07/09 01:11:50;;;;;;;12.30;7.53;;;;;;;23.58;82.53;100244.47;6248936;28;20124;-63
2021/07/09 01:14:51;;;;;;;9.75;8.45;;;;;;;23.53;82.63;100243.16;6248663;28;20068;-63
2021/07/09 01:17:52;;;;;;;12.23;8.87;;;;;;;23.50;82.82;100242.69;6248767;28;20159;-63
2021/07/09 01:20:53;;;;;;;;;;;;;;;23.46;83.00;100247.50;6247893;28;20038;-64
2021/07/09 01:24:01;;;;;;;9.70;7.93;;;;;;;23.48;82.88;100237.53;6248591;28;19925;-64
2021/07/09 01:27:02;;;;;;;12.98;8.48;;;;;;;23.44;83.38;100243.38;6248407;28;20045;-63
2021/07/09 01:30:09;;;;;;;12.13;8.32;;;;;;;23.41;83.24;100230.38;6248536;28;20400;-65
2021/07/09 01:33:10;;;;;;;11.82;8.45;;;;;;;23.33;84.14;100233.94;6248341;28;20072;-63
2021/07/09 01:36:11;;;;;;;12.30;8.55;;;;;;;23.34;83.70;100227.59;6230554;28;20067;-63
2021/07/09 01:39:14;;;;;;;10.30;8.90;;;;;;;23.40;83.58;100232.22;6247044;28;20472;-63
2021/07/09 01:42:14;;;;;;;8.73;7.75;;;;;;;23.37;84.49;100237.91;6248171;28;20439;-63
2021/07/09 01:45:15;;;;;;;11.37;8.33;;;;;;;23.41;84.16;100241.03;6248083;28;20064;-63
2021/07/09 01:48:16;;;;;;;10.80;8.13;;;;;;;23.39;83.48;100246.56;6246722;28;20048;-63
2021/07/09 01:51:17;;;;;;;10.00;7.97;;;;;;;23.40;84.40;100245.53;6247967;28;20048;-64
2021/07/09 01:54:18;;;;;;;13.07;8.70;;;;;;;23.51;83.31;100246.97;6246831;28;20038;-63
2021/07/09 01:57:19;;;;;;;12.35;8.90;;;;;;;23.30;84.48;100256.38;6247871;28;20041;-64
2021/07/09 02:00:22;;;;;;;13.70;8.43;;;;;;;23.28;84.19;100257.56;6247748;28;20049;-64
2021/07/09 02:03:23;;;;;;;10.20;8.40;;;;;;;23.32;84.29;100246.38;6247714;28;20120;-63
2021/07/09 02:06:24;;;;;;;9.90;8.53;;;;;;;23.40;83.41;100239.41;6247346;28;20057;-63
2021/07/09 02:09:25;;;;;;;8.73;7.80;;;;;;;23.31;84.39;100243.94;6246146;28;20278;-63
2021/07/09 02:12:28;;;;;;;9.87;8.33;;;;;;;23.25;84.00;100248.09;6247445;28;20064;-64
2021/07/09 02:15:33;;;;;;;14.75;8.52;;;;;;;23.23;83.88;100244.78;6247282;28;20396;-64
2021/07/09 02:18:34;;;;;;;10.70;8.68;;;;;;;23.15;84.12;100244.78;6247300;28;20095;-64
2021/07/09 02:21:35;;;;;;;12.53;8.33;;;;;;;23.08;84.74;100244.66;6246032;28;20049;-64
2021/07/09 02:24:37;;;;;;;10.20;8.57;;;;;;;23.08;84.64;100246.47;6246055;28;20439;-64
2021/07/09 02:27:44;;;;;;;14.55;8.50;;;;;;;23.08;84.36;100243.81;6247515;28;20081;-63
2021/07/09 02:30:45;;;;;;;11.10;8.48;;;;;;;23.03;84.58;100246.16;6247043;28;20041;-63
2021/07/09 02:33:46;;;;;;;14.87;8.77;;;;;;;22.99;84.62;100245.63;6246920;28;20534;-63
2021/07/09 02:36:46;;;;;;;14.07;8.63;;;;;;;22.92;84.96;100250.81;6245721;28;20404;-63
2021/07/09 02:39:47;;;;;;;12.00;8.03;;;;;;;23.00;85.05;100246.44;6245735;28;20045;-63
2021/07/09 02:42:51;;;;;;;14.50;8.27;;;;;;;22.88;85.37;100246.81;6246779;28;20037;-64
2021/07/09 02:45:53;;;;;;;17.02;8.77;;;;;;;22.75;85.93;100251.81;6246745;28;20049;-63
2021/07/09 02:48:53;;;;;;;13.18;8.95;;;;;;;22.78;85.72;100254.16;6246542;28;20049;-64
2021/07/09 02:51:54;;;;;;;10.57;8.70;;;;;;;22.80;85.73;100265.44;6245518;28;20045;-64
2021/07/09 02:54:55;;;;;;;13.37;8.30;;;;;;;22.82;85.56;100265.28;6246554;28;20071;-63
2021/07/09 02:57:55;;;;;;;13.20;8.47;;;;;;;22.75;85.93;100270.44;6245241;28;20037;-63
2021/07/09 03:00:56;;;;;;;12.83;8.90;;;;;;;22.64;86.66;100260.97;6246460;28;20042;-63
2021/07/09 03:03:57;;;;;;;10.50;8.60;;;;;;;22.63;86.68;100258.47;6245265;28;20092;-63
2021/07/09 03:06:57;;;;;;;12.00;8.77;;;;;;;22.71;86.01;100269.97;6244978;28;20061;-63
2021/07/09 03:09:58;;;;;;;10.17;8.73;;;;;;;22.66;86.47;100258.97;6228712;28;20242;-63
2021/07/09 03:12:59;;;;;;;18.10;9.47;;;;;;;22.52;87.11;100262.31;6228746;28;20065;-63
2021/07/09 03:16:00;;;;;;;13.40;8.80;;;;;;;22.50;87.27;100266.94;6246161;28;20484;-63
2021/07/09 03:19:01;;;;;;;9.33;8.33;;;;;;;22.54;87.15;100270.94;6245002;28;20037;-63
2021/07/09 03:22:03;;;;;;;13.23;8.88;;;;;;;22.51;87.26;100264.13;6250461;28;20041;-63
2021/07/09 03:25:06;;;;;;;11.68;8.23;;;;;;;22.54;87.06;100265.63;6252986;28;20052;-63
2021/07/09 03:28:06;;;;;;;13.20;9.15;;;;;;;22.44;87.37;100267.63;6254182;28;20045;-63
2021/07/09 03:31:08;;;;;;;13.97;7.60;;;;;;;22.60;86.74;100264.97;6253186;28;20099;-63
2021/07/09 03:34:10;;;;;;;13.63;8.57;;;;;;;22.64;86.34;100268.13;6236624;28;20488;-64
2021/07/09 03:37:11;;;;;;;11.85;8.57;;;;;;;22.68;85.92;100277.44;6252888;28;20037;-64
2021/07/09 03:40:12;;;;;;;13.47;8.53;;;;;;;22.74;85.34;100285.56;6252918;28;20484;-64
2021/07/09 03:43:14;;;;;;;12.32;8.43;;;;;;;22.70;84.96;100278.91;6252920;28;20067;-64
2021/07/09 03:46:15;;;;;;;9.00;8.02;;;;;;;22.70;85.49;100278.09;6252961;28;20049;-64
2021/07/09 03:49:16;;;;;;;16.50;8.43;;;;;;;22.70;85.34;100275.44;6254045;28;20037;-64
2021/07/09 03:52:17;;;;;;;15.13;8.70;;;;;;;22.74;85.16;100274.09;6236477;28;20048;-64
2021/07/09 03:55:18;;;;;;;11.40;7.90;;;;;;;22.80;84.86;100281.41;6253864;28;20131;-64
2021/07/09 03:58:18;;;;;;;10.13;8.30;;;;;;;22.83;nan;100278.41;6253972;28;20575;-64
2021/07/09 04:01:19;;;;;;;16.07;8.23;;;;;;;22.84;84.50;100274.75;6236360;28;20048;-64
2021/07/09 04:04:20;;;;;;;12.13;8.17;;;;;;;22.91;84.11;100278.38;6236431;28;20046;-64
2021/07/09 04:07:21;;;;;;;9.63;7.37;;;;;;;22.96;84.14;100277.06;6252609;28;20095;-63
2021/07/09 04:10:21;;;;;;;14.23;7.97;;;;;;;22.99;83.63;100277.56;6252859;28;20038;-63
2021/07/09 04:13:22;;;;;;;11.70;7.80;;;;;;;23.10;83.17;100279.91;6253818;28;20199;-63
2021/07/09 04:16:24;;;;;;;15.20;7.80;;;;;;;23.12;82.78;100285.03;6252375;28;20046;-63
2021/07/09 04:19:25;;;;;;;17.90;7.93;;;;;;;23.12;82.34;100291.22;6252511;28;20048;-63
2021/07/09 04:22:26;;;;;;;10.23;7.63;;;;;;;23.12;81.53;100287.69;6253684;28;20041;-63
2021/07/09 04:25:26;;;;;;;15.17;6.97;;;;;;;23.18;80.95;100295.00;6253717;28;20045;-63
2021/07/09 04:28:27;;;;;;;11.90;6.87;;;;;;;23.23;80.59;100294.53;6253692;28;20041;-64
2021/07/09 04:31:28;;;;;;;11.87;7.20;;;;;;;23.22;80.70;100298.16;6252279;28;20037;-63
2021/07/09 04:34:29;;;;;;;9.77;6.97;;;;;;;23.27;80.25;100301.16;6248381;28;20164;-63
2021/07/09 04:37:30;;;;;;;16.73;6.90;;;;;;;23.32;80.80;100302.28;6248483;28;20042;-63
2021/07/09 04:40:31;;;;;;;15.43;7.23;;;;;;;23.35;80.07;100295.81;6249515;28;20050;-63
2021/07/09 04:43:32;;;;;;;15.97;7.50;;;;;;;23.39;80.37;100297.16;6248374;28;20068;-62
2021/07/09 04:46:32;;;;;;;9.37;7.53;;;;;;;23.32;79.08;100291.66;6249461;28;20045;-63
2021/07/09 04:49:33;;;;;;;7.33;6.03;;;;;;;23.32;78.62;100291.66;6215443;28;20051;-63
2021/07/09 04:52:34;;;;;;;12.15;6.80;;;;;;;23.37;78.96;100296.47;6249403;28;20831;-64
2021/07/09 04:55:35;;;;;;;9.85;6.63;;;;;;;23.43;79.36;100300.28;6247987;28;20477;-64
2021/07/09 04:58:36;;;;;;;14.57;6.50;;;;;;;23.49;79.40;100302.25;6247986;28;20044;-64
2021/07/09 05:01:36;;;;;;;12.87;6.13;;;;;;;23.48;78.17;100303.25;6249165;28;20037;-64
2021/07/09 05:04:37;;;;;;;18.63;6.67;;;;;;;23.56;79.08;100297.91;6249256;28;20037;-65
2021/07/09 05:07:38;;;;;;;8.80;5.83;;;;;;;23.64;79.39;100292.56;6247854;28;20049;-63
2021/07/09 05:10:39;;;;;;;11.38;5.80;;;;;;;23.70;77.55;100296.34;6247707;28;20042;-63
2021/07/09 05:13:40;;;;;;;10.07;6.03;;;;;;;23.75;75.65;100294.00;6247745;28;20048;-63
2021/07/09 05:16:40;;;;;;;9.07;5.63;;;;;;;23.81;77.08;100296.00;6247478;28;20041;-63
2021/07/09 05:19:41;;;;;;;8.10;5.57;;;;;;;23.90;75.87;100296.78;6248714;28;20049;-63
2021/07/09 05:22:42;;;;;;;9.93;5.93;;;;;;;23.90;74.00;100299.44;6231130;28;20048;-63
2021/07/09 05:25:43;;;;;;;13.07;6.28;;;;;;;23.96;74.79;100296.09;6248532;28;20111;-63
2021/07/09 05:28:44;;;;;;;13.50;5.60;;;;;;;23.97;74.98;100292.44;6248489;28;20045;-63
2021/07/09 05:31:45;;;;;;;10.70;5.10;;;;;;;24.02;74.41;100294.56;6230744;28;20042;-65
2021/07/09 05:34:45;;;;;;;15.77;5.50;;;;;;;24.05;74.72;100288.88;6247126;28;20504;-64
2021/07/09 05:37:46;;;;;;;9.33;5.33;;;;;;;24.10;73.68;100287.34;6247196;28;20106;-65
2021/07/09 05:40:47;;;;;;;12.37;5.20;;;;;;;24.14;74.16;100288.66;6248603;28;20049;-64
2021/07/09 05:43:48;;;;;;;8.23;5.27;;;;;;;24.17;72.94;100291.97;6247435;28;20332;-62
2021/07/09 05:46:48;;;;;;;9.27;4.80;;;;;;;24.20;73.65;100287.13;6231092;28;20057;-63
2021/07/09 05:49:49;;;;;;;12.53;5.20;;;;;;;24.28;70.67;100276.41;6247667;28;20484;-62
2021/07/09 05:52:50;;;;;;;8.63;4.80;;;;;;;24.35;72.91;100276.50;6248683;28;20052;-63
2021/07/09 05:55:50;;;;;;;6.73;4.70;;;;;;;24.44;70.46;100278.13;6248357;28;20124;-64
2021/07/09 05:58:51;;;;;;;8.97;4.77;;;;;;;24.49;73.13;100275.78;6246758;28;20124;-64
2021/07/09 06:01:53;;;;;;;10.05;5.15;;;;;;;24.55;72.80;100276.06;6230341;28;20047;-65
2021/07/09 06:04:54;;;;;;;6.05;4.30;;;;;;;24.59;69.20;100280.03;6247522;28;20049;-64
2021/07/09 06:07:54;;;;;;;7.97;5.27;;;;;;;24.66;69.73;100280.97;6246571;28;20046;-65
2021/07/09 06:10:57;;;;;;;9.57;4.97;;;;;;;24.70;69.43;100280.41;6245973;28;20065;-64
2021/07/09 06:13:58;;;;;;;17.05;6.32;;;;;;;24.77;68.94;100267.22;6246319;28;20411;-64
2021/07/09 06:16:58;;;;;;;9.03;4.70;;;;;;;24.85;67.64;100269.81;6246055;28;20053;-64
2021/07/09 06:19:59;;;;;;;11.13;4.77;;;;;;;24.93;69.36;100268.88;6247320;28;20508;-63
2021/07/09 06:23:00;;;;;;;7.25;4.25;;;;;;;24.99;67.35;100260.13;6247169;28;20115;-64
2021/07/09 06:26:01;;;;;;;12.30;4.70;;;;;;;25.01;69.98;100268.78;6247258;28;20385;-64
2021/07/09 06:29:02;;;;;;;10.52;4.00;;;;;;;25.06;68.60;100277.09;6245911;28;20281;-64
2021/07/09 06:32:03;;;;;;;5.63;4.70;;;;;;;25.13;67.02;100270.00;6246965;28;20044;-64
2021/07/09 06:35:07;;;;;;;10.18;4.75;;;;;;;25.21;67.69;100265.63;6245863;28;20046;-64
2021/07/09 06:38:08;;;;;;;4.75;4.22;;;;;;;25.33;65.49;100274.84;6246828;28;20053;-64
2021/07/09 06:41:08;;;;;;;8.63;4.05;;;;;;;25.45;65.76;100261.81;6245670;28;20408;-64
2021/07/09 06:44:09;;;;;;;11.30;3.90;;;;;;;25.66;61.84;100250.41;6245623;28;20052;-64
2021/07/09 06:47:10;;;;;;;10.48;4.25;;;;;;;25.69;64.06;100252.69;6246791;28;20041;-64
2021/07/09 06:50:13;;;;;;;5.38;3.95;;;;;;;25.79;61.82;100247.03;6229001;28;20400;-64
2021/07/09 06:53:15;;;;;;;6.18;3.90;;;;;;;25.87;62.10;100250.41;6246645;28;20120;-64
2021/07/09 06:56:16;;;;;;;6.43;3.92;;;;;;;25.93;60.63;100243.53;6245776;28;20036;-64
2021/07/09 06:59:17;;;;;;;10.48;3.92;;;;;;;26.01;59.88;100240.75;6246419;28;20041;-64
2021/07/09 07:02:19;;;;;;;5.97;3.55;;;;;;;26.24;57.88;100245.06;6246453;28;20041;-64
2021/07/09 07:05:20;;;;;;;5.85;3.83;;;;;;;26.27;57.76;100242.81;6246165;28;20487;-64
2021/07/09 07:08:25;;;;;;;5.07;3.53;;;;;;;26.34;58.46;100245.59;6228693;28;20053;-65
2021/07/09 07:11:26;;;;;;;4.90;3.50;;;;;;;26.45;56.42;100242.38;6244992;28;20044;-65
2021/07/09 07:14:26;;;;;;;8.63;3.63;;;;;;;26.53;56.02;100244.91;6245035;28;20470;-64
2021/07/09 07:17:28;;;;;;;5.68;3.40;;;;;;;26.48;58.13;100250.03;6245237;28;20087;-65
2021/07/09 07:20:29;;;;;;;;;;;;;;;26.64;58.30;100245.44;6246563;28;20041;-63
2021/07/09 07:23:30;;;;;;;6.93;3.63;;;;;;;26.77;56.17;100244.69;6246099;28;19921;-64
2021/07/09 07:26:30;;;;;;;6.55;3.75;;;;;;;26.75;58.31;100242.25;6246184;28;20045;-63
2021/07/09 07:29:31;;;;;;;6.30;4.00;;;;;;;26.66;58.20;100244.22;6246148;28;20037;-64
2021/07/09 07:32:33;;;;;;;5.63;3.90;;;;;;;26.65;58.54;100252.47;6246498;28;20481;-63
2021/07/09 07:35:33;;;;;;;6.85;4.22;;;;;;;26.95;54.93;100250.38;6212241;28;20183;-63
2021/07/09 07:38:34;;;;;;;4.60;3.80;;;;;;;27.13;54.15;100249.88;6233897;28;20038;-63
2021/07/09 07:41:35;;;;;;;8.52;4.15;;;;;;;27.30;53.97;100245.91;6233605;28;20045;-63
2021/07/09 07:44:36;;;;;;;5.63;4.35;;;;;;;27.26;54.43;100247.34;6241261;28;20042;-65
2021/07/09 07:47:37;;;;;;;10.80;4.03;;;;;;;27.37;53.38;100253.16;6233188;28;20042;-64
2021/07/09 07:50:38;;;;;;;5.72;3.85;;;;;;;27.45;52.86;100244.94;6204792;28;20046;-63
2021/07/09 07:53:38;;;;;;;6.55;4.13;;;;;;;27.59;52.33;100241.25;6222242;28;20428;-64
2021/07/09 07:56:40;;;;;;;9.40;4.10;;;;;;;27.63;53.64;100239.84;6221645;28;20458;-63
2021/07/09 07:59:45;;;;;;;9.05;3.80;;;;;;;27.61;51.95;100246.44;6221407;28;20405;-63
2021/07/09 08:02:46;;;;;;;4.72;3.78;;;;;;;27.59;53.01;100238.59;6221613;28;20046;-63
2021/07/09 08:05:46;;;;;;;7.00;4.30;;;;;;;27.71;51.43;100244.19;6221237;28;20057;-64
2021/07/09 08:08:47;;;;;;;5.43;4.40;;;;;;;27.79;54.13;100245.88;6223905;28;20042;-63
2021/07/09 08:11:50;;;;;;;7.38;4.20;;;;;;;27.70;54.10;100245.25;6225872;28;20034;-63
2021/07/09 08:14:51;;;;;;;7.38;4.72;;;;;;;27.95;51.16;100242.88;6225735;28;20042;-63
2021/07/09 08:17:52;;;;;;;9.18;4.93;;;;;;;28.10;50.18;100237.31;6208147;28;20057;-63
2021/07/09 08:20:53;;;;;;;5.82;4.85;;;;;;;28.05;51.27;100237.13;6225802;28;20041;-63
2021/07/09 08:23:54;;;;;;;7.90;4.70;;;;;;;27.93;53.25;100236.88;6208110;28;20056;-63
2021/07/09 08:26:55;;;;;;;7.22;4.60;;;;;;;28.08;51.34;100240.19;6225717;28;20054;-63
2021/07/09 08:29:56;;;;;;;10.10;5.20;;;;;;;28.23;50.75;100233.81;6225527;28;20270;-63
2021/07/09 08:32:57;;;;;;;8.27;5.07;;;;;;;28.39;48.32;100243.31;6224317;28;20045;-64
2021/07/09 08:35:58;;;;;;;8.45;4.88;;;;;;;28.41;49.48;100252.00;6225444;28;20083;-63
2021/07/09 08:38:58;;;;;;;8.43;4.10;;;;;;;28.41;48.23;100252.81;6224544;28;20042;-64
2021/07/09 08:41:59;;;;;;;9.63;4.93;;;;;;;28.30;50.93;100243.53;6225544;28;20385;-64
2021/07/09 08:45:00;;;;;;;6.10;5.15;;;;;;;28.38;48.98;100239.00;6242441;28;20045;-64
2021/07/09 08:48:01;;;;;;;7.30;5.18;;;;;;;28.36;49.23;100239.22;6237799;28;20124;-62
2021/07/09 08:51:03;;;;;;;6.93;5.30;;;;;;;28.32;47.74;100246.84;6236571;28;20600;-63
2021/07/09 08:54:09;;;;;;;7.38;5.50;;;;;;;28.55;49.69;100244.81;6227445;28;20061;-63
2021/07/09 08:57:10;;;;;;;10.48;5.57;;;;;;;28.49;48.64;100244.59;6250067;28;20419;-69
2021/07/09 09:00:26;;;;;;;14.35;6.45;;;;;;;28.59;49.54;100246.06;6250125;28;20045;-66
2021/07/09 09:03:28;;;;;;;15.20;6.38;;;;;;;28.65;49.48;100245.22;6250100;28;20037;-66
2021/07/09 09:06:29;;;;;;;9.95;5.95;;;;;;;28.72;49.01;100249.56;6248536;28;20064;-70
2021/07/09 09:09:30;;;;;;;;;;;;;;;28.67;50.01;100238.59;6232703;28;20049;-66
2021/07/09 09:12:31;;;;;;;12.25;6.10;;;;;;;28.70;48.34;100237.34;6248509;28;19925;-66
2021/07/09 09:15:32;;;;;;;8.13;5.60;;;;;;;28.71;49.13;100228.28;6248527;28;20107;-68
2021/07/09 09:18:35;;;;;;;9.95;5.70;;;;;;;28.79;48.53;100235.31;6214766;28;20045;-65
2021/07/09 09:21:36;;;;;;;8.20;5.90;;;;;;;28.63;50.94;100229.31;6249412;28;20048;-68
2021/07/09 09:24:38;;;;;;;12.77;5.03;;;;;;;28.80;50.63;100234.25;6248276;28;20049;-64
2021/07/09 09:27:39;;;;;;;13.45;5.20;;;;;;;28.80;50.15;100234.25;6249584;28;20044;-66
2021/07/09 09:30:41;;;;;;;14.70;5.82;;;;;;;28.72;51.61;100230.78;6249564;28;20046;-67
2021/07/09 09:33:42;;;;;;;10.02;5.70;;;;;;;28.77;49.77;100235.50;6248045;28;20080;-66
2021/07/09 09:36:58;;;;;;;18.17;5.63;;;;;;;28.90;50.27;100229.28;6249185;28;20037;-62
2021/07/09 09:39:58;;;;;;;8.77;5.70;;;;;;;28.83;48.85;100225.78;6248599;28;20041;-62
2021/07/09 09:43:08;;;;;;;12.27;6.30;;;;;;;28.94;50.24;100225.13;6248715;28;20049;-62
2021/07/09 09:46:09;;;;;;;11.88;5.80;;;;;;;29.15;48.57;100234.00;6248060;28;20053;-62
2021/07/09 09:49:16;;;;;;;16.52;6.22;;;;;;;29.18;48.29;100226.34;6248814;28;20092;-63
2021/07/09 09:52:39;;;;;;;14.30;5.85;;;;;;;29.11;48.16;100220.16;6248675;28;20045;-62
2021/07/09 09:55:41;;;;;;;12.45;6.13;;;;;;;29.27;48.39;100218.88;6248806;28;20052;-62
2021/07/09 09:58:42;;;;;;;6.82;6.00;;;;;;;29.32;48.82;100217.22;6248900;28;20080;-62
2021/07/09 10:01:56;;;;;;;11.70;6.03;;;;;;;29.34;48.18;100219.66;6247711;28;20054;-62
2021/07/09 10:04:57;;;;;;;7.88;6.15;;;;;;;29.31;47.40;100218.22;6248252;28;20064;-61
2021/07/09 10:07:59;;;;;;;15.45;6.25;;;;;;;29.24;48.41;100217.44;6248240;28;20050;-61
2021/07/09 10:11:01;;;;;;;14.57;6.43;;;;;;;29.20;50.80;100216.22;6248367;28;20037;-61
2021/07/09 10:14:02;;;;;;;11.13;6.30;;;;;;;29.39;47.85;100208.31;6247135;28;20046;-61
2021/07/09 10:17:04;;;;;;;10.63;6.28;;;;;;;29.37;49.63;100213.88;6248378;28;20141;-67
2021/07/09 10:20:06;;;;;;;9.57;6.20;;;;;;;29.50;49.00;100199.56;6248175;28;20053;-66
2021/07/09 10:23:08;;;;;;;13.30;6.22;;;;;;;29.65;46.96;100189.34;6248166;28;20037;-66
2021/07/09 10:26:10;;;;;;;11.60;6.57;;;;;;;29.82;49.02;100187.00;6248069;28;20476;-66
2021/07/09 10:29:12;;;;;;;11.45;6.60;;;;;;;29.83;47.49;100188.63;6247823;28;20049;-61
2021/07/09 10:32:33;;;;;;;9.27;6.50;;;;;;;29.94;47.19;100184.44;6246944;28;20046;-66
2021/07/09 10:35:41;;;;;;;8.85;6.60;;;;;;;29.95;46.50;100178.00;6247870;28;20072;-66
2021/07/09 10:38:42;;;;;;;8.70;6.82;;;;;;;30.07;47.73;100184.34;6230449;28;20432;-65
2021/07/09 10:41:42;;;;;;;9.00;7.00;;;;;;;30.04;45.85;100184.78;6246714;28;20083;-63
2021/07/09 10:45:08;;;;;;;8.23;6.68;;;;;;;30.05;45.98;100178.34;6248249;28;20047;-63
2021/07/09 10:48:14;;;;;;;9.88;6.55;;;;;;;29.90;49.55;100167.09;6247392;28;20542;-63
2021/07/09 10:51:14;;;;;;;13.70;6.93;;;;;;;29.85;48.10;100170.41;6234457;28;20045;-63
2021/07/09 10:54:29;;;;;;;12.90;6.80;;;;;;;29.88;48.27;100164.63;6245486;28;20492;-64
2021/07/09 10:57:30;;;;;;;10.85;7.20;;;;;;;30.18;45.43;100165.84;6242862;28;20045;-62
2021/07/09 11:00:41;;;;;;;9.32;6.70;;;;;;;30.31;46.29;100160.34;6205535;28;20050;-62
2021/07/09 11:03:54;;;;;;;17.23;7.25;;;;;;;30.33;44.37;100151.03;6242640;28;20068;-62
2021/07/09 11:06:54;;;;;;;12.40;7.10;;;;;;;30.36;45.66;100149.75;6247251;28;20065;-62
2021/07/09 11:09:55;;;;;;;8.82;7.15;;;;;;;30.55;43.83;100147.91;6246147;28;20128;-64
2021/07/09 11:12:56;;;;;;;12.55;7.25;;;;;;;30.52;46.54;100140.31;6245855;28;20451;-62
2021/07/09 11:16:00;;;;;;;9.98;6.90;;;;;;;30.45;45.79;100128.75;6229602;28;20056;-63
2021/07/09 11:19:03;;;;;;;15.40;7.50;;;;;;;30.56;49.63;100129.88;6247205;28;20072;-62
2021/07/09 11:22:14;;;;;;;10.93;6.85;;;;;;;30.55;46.54;100126.38;6247122;28;20052;-62
2021/07/09 11:25:15;;;;;;;9.93;7.55;;;;;;;30.70;43.70;100126.84;6245856;28;20049;-62
2021/07/09 11:28:27;;;;;;;16.15;7.15;;;;;;;30.81;44.97;100127.97;6246902;28;20045;-62
2021/07/09 11:31:34;;;;;;;16.40;6.88;;;;;;;31.30;42.81;100128.84;6229598;28;20455;-62
2021/07/09 11:34:42;;;;;;;7.57;6.78;;;;;;;31.41;41.75;100131.81;6245810;28;20399;-62
2021/07/09 11:37:43;;;;;;;12.18;7.13;;;;;;;31.47;43.21;100131.72;6245129;28;20124;-62
2021/07/09 11:40:43;;;;;;;;;;;;;;;31.67;42.63;100133.28;6245975;28;20033;-62
2021/07/09 11:43:44;;;;;;;8.17;6.83;;;;;;;31.40;41.46;100124.75;6249320;28;19928;-62
2021/07/09 11:46:46;;;;;;;;;;;;;;;31.43;42.34;100124.31;6233803;28;20049;-62
2021/07/09 11:49:48;;;;;;;7.80;6.97;;;;;;;31.78;42.34;100121.72;6251641;28;19929;-62
2021/07/09 11:52:51;;;;;;;9.30;6.63;;;;;;;31.72;44.11;100112.69;6251803;28;20045;-62
2021/07/09 11:55:52;;;;;;;10.85;6.53;;;;;;;31.63;46.37;100113.25;6251147;28;20053;-63
2021/07/09 11:59:10;;;;;;;;;;;;;;;31.63;46.53;100108.69;6251635;28;20041;-62
2021/07/09 12:02:18;;;;;;;12.38;7.20;;;;;;;31.52;42.67;100117.56;6249972;28;19935;-62
2021/07/09 12:05:23;;;;;;;15.52;6.63;;;;;;;31.18;43.99;100106.41;6251007;28;20056;-63
2021/07/09 12:08:24;;;;;;;11.98;7.32;;;;;;;30.89;43.08;100110.72;6251525;28;20050;-63
2021/07/09 12:11:24;;;;;;;;;;;;;;;30.88;43.82;100106.38;6251491;28;20064;-63
2021/07/09 12:14:25;;;;;;;11.00;7.00;;;;;;;31.00;41.27;100107.25;6251131;28;19932;-67
2021/07/09 12:17:28;;;;;;;;;;;;;;;31.02;42.41;100096.25;6250900;28;20053;-66
2021/07/09 12:20:31;;;;;;;10.50;7.38;;;;;;;31.12;42.11;100091.97;6245040;28;19921;-66
2021/07/09 12:23:33;;;;;;;9.75;7.13;;;;;;;31.53;40.99;100092.25;6248932;28;20041;-66
2021/07/09 12:26:34;;;;;;;10.25;7.20;;;;;;;31.81;40.73;100093.47;6249559;28;20069;-66
2021/07/09 12:29:35;;;;;;;;;;;;;;;31.97;41.68;100087.38;6251363;28;20048;-65
2021/07/09 12:32:47;;;;;;;10.45;6.95;;;;;;;32.22;41.67;100089.88;6249322;28;20414;-64
2021/07/09 12:36:02;;;;;;;7.68;6.85;;;;;;;32.18;39.55;100086.00;6250659;28;20103;-64
2021/07/09 12:39:05;;;;;;;11.35;6.88;;;;;;;32.24;41.34;100087.75;6250340;28;20098;-65
2021/07/09 12:42:22;;;;;;;11.65;6.95;;;;;;;32.30;39.96;100084.13;6250487;28;20495;-65
2021/07/09 12:45:32;;;;;;;7.72;6.80;;;;;;;32.09;39.45;100082.03;6250317;28;20045;-66
2021/07/09 12:48:36;;;;;;;13.82;7.03;;;;;;;31.81;40.65;100071.88;6250477;28;20534;-66
2021/07/09 12:51:40;;;;;;;9.18;6.47;;;;;;;31.58;43.93;100070.78;6250191;28;20053;-66
2021/07/09 12:54:41;;;;;;;12.50;6.85;;;;;;;31.81;43.32;100061.09;6248963;28;20409;-66
2021/07/09 12:57:42;;;;;;;15.38;6.80;;;;;;;32.15;41.98;100059.50;6249905;28;20071;-66
2021/07/09 13:00:50;;;;;;;;;;;;;;;32.01;43.96;100053.50;6249416;28;20420;-66
2021/07/09 13:03:51;;;;;;;10.43;6.43;;;;;;;32.04;39.71;100044.97;6250151;28;19928;-66
2021/07/09 13:07:09;;;;;;;;;;;;;;;31.89;41.52;100039.16;6249278;28;20053;-65
2021/07/09 13:10:16;;;;;;;9.00;6.50;;;;;;;31.77;40.70;100028.38;6249940;28;19921;-65
2021/07/09 13:13:19;;;;;;;8.55;6.00;;;;;;;31.68;42.11;100027.91;6249803;28;20128;-65
2021/07/09 13:16:25;;;;;;;7.25;6.45;;;;;;;31.72;41.16;100015.59;6249713;28;20475;-65
2021/07/09 13:19:37;;;;;;;7.88;6.32;;;;;;;31.91;40.45;100008.19;6248294;28;20049;-62
2021/07/09 13:22:49;;;;;;;10.27;6.00;;;;;;;32.20;40.23;99999.41;6248609;28;20034;-62
2021/07/09 13:26:17;;;;;;;7.70;5.40;;;;;;;32.47;39.70;99995.13;6246060;28;20068;-60
2021/07/09 13:29:19;;;;;;;8.88;5.85;;;;;;;32.54;41.62;99997.72;6247195;28;20111;-62
2021/07/09 13:32:20;;;;;;;9.05;6.15;;;;;;;32.04;44.44;100006.34;6248725;28;20053;-64
2021/07/09 13:35:21;;;;;;;9.60;5.63;;;;;;;31.86;41.80;100009.97;6247872;28;20412;-65
2021/07/09 13:38:22;;;;;;;7.78;5.90;;;;;;;31.52;43.65;100002.44;6248285;28;20392;-65
2021/07/09 13:41:22;;;;;;;14.55;5.50;;;;;;;31.43;43.52;100001.13;6249334;28;20034;-65
2021/07/09 13:44:23;;;;;;;;;;;;;;;31.66;43.75;99996.84;6232242;28;20129;-65
2021/07/09 13:47:24;;;;;;;7.57;5.87;;;;;;;31.78;45.85;100004.94;6246751;28;20016;-63
2021/07/09 13:50:24;;;;;;;8.05;5.30;;;;;;;31.72;44.01;99999.41;6243766;28;20137;-65
2021/07/09 13:53:25;;;;;;;;;;;;;;;31.59;44.26;99998.81;6206765;28;20046;-65
2021/07/09 13:56:26;;;;;;;9.07;5.80;;;;;;;31.41;43.68;99994.31;6223367;28;20321;-65
2021/07/09 13:59:26;;;;;;;;;;;;;;;31.29;42.17;99997.00;6206627;28;20104;-65
2021/07/09 14:02:27;;;;;;;10.17;5.60;;;;;;;31.12;43.88;99996.84;6222490;28;19928;-65
2021/07/09 14:05:28;;;;;;;;;;;;;;;31.14;44.05;99992.03;6222360;28;20504;-65
2021/07/09 14:08:29;;;;;;;13.10;5.93;;;;;;;30.90;46.47;99991.13;6206035;28;20019;-65